sensor_id;sensor_type;location;lat;lon;timestamp;pressure;altitude;pressure_sealevel;temperature;humidity
20444;BME280;10381;53.730;10.010;2023-04-24T00:02:53;99683.09;;;10.38;100.00
20444;BME280;10381;53.730;10.010;2023-04-24T00:06:56;99679.97;;;10.35;100.00
20444;BME280;10381;53.730;10.010;2023-04-24T00:11:00;99670.53;;;10.40;100.00
20444;BME280;10381;53.730;10.010;2023-04-24T00:15:00;99668.72;;;10.33;100.00
20444;BME280;10381;53.730;10.010;2023-04-24T00:19:01;99666.41;;;10.38;100.00
20444;BME280;10381;53.730;10.010;2023-04-24T00:23:01;99661.09;;;10.30;100.00
20444;BME280;10381;53.730;10.010;2023-04-24T00:27:01;99647.16;;;10.28;100.00
20444;BME280;10381;53.730;10.010;2023-04-24T00:31:02;99639.69;;;10.23;100.00
20444;BME280;10381;53.730;10.010;2023-04-24T00:35:03;99634.88;;;10.18;100.00
20444;BME280;10381;53.730;10.010;2023-04-24T00:39:04;99627.28;;;10.15;100.00
20444;BME280;10381;53.730;10.010;2023-04-24T00:43:04;99632.56;;;10.15;100.00
20444;BME280;10381;53.730;10.010;2023-04-24T00:47:05;99617.47;;;10.08;100.00
20444;BME280;10381;53.730;10.010;2023-04-24T00:51:05;99622.41;;;10.02;100.00
20444;BME280;10381;53.730;10.010;2023-04-24T00:55:06;99638.28;;;9.94;100.00
20444;BME280;10381;53.730;10.010;2023-04-24T00:59:07;99622.56;;;9.93;100.00
20444;BME280;10381;53.730;10.010;2023-04-24T01:03:08;99630.00;;;9.97;100.00
20444;BME280;10381;53.730;10.010;2023-04-24T01:07:08;99629.22;;;10.05;100.00
20444;BME280;10381;53.730;10.010;2023-04-24T01:11:11;99629.19;;;9.97;100.00
20444;BME280;10381;53.730;10.010;2023-04-24T01:15:11;99627.97;;;9.83;100.00
20444;BME280;10381;53.730;10.010;2023-04-24T01:19:12;99631.41;;;9.75;100.00
20444;BME280;10381;53.730;10.010;2023-04-24T01:23:14;99631.75;;;9.72;100.00
20444;BME280;10381;53.730;10.010;2023-04-24T01:27:15;99629.44;;;9.69;100.00
20444;BME280;10381;53.730;10.010;2023-04-24T01:31:16;99631.41;;;9.75;100.00
20444;BME280;10381;53.730;10.010;2023-04-24T01:35:16;99626.09;;;9.67;100.00
20444;BME280;10381;53.730;10.010;2023-04-24T01:39:16;99619.97;;;9.67;100.00
20444;BME280;10381;53.730;10.010;2023-04-24T01:43:17;99617.25;;;9.50;100.00
20444;BME280;10381;53.730;10.010;2023-04-24T01:47:18;99613.28;;;9.46;100.00
20444;BME280;10381;53.730;10.010;2023-04-24T01:51:18;99613.50;;;9.61;100.00
20444;BME280;10381;53.730;10.010;2023-04-24T01:55:19;99615.41;;;9.77;100.00
20444;BME280;10381;53.730;10.010;2023-04-24T01:59:20;99613.59;;;9.86;100.00
20444;BME280;10381;53.730;10.010;2023-04-24T02:03:21;99599.56;;;9.85;100.00
20444;BME280;10381;53.730;10.010;2023-04-24T02:07:22;99592.06;;;9.72;100.00
20444;BME280;10381;53.730;10.010;2023-04-24T02:11:22;99592.63;;;9.50;100.00
20444;BME280;10381;53.730;10.010;2023-04-24T02:15:22;99592.56;;;9.33;100.00
20444;BME280;10381;53.730;10.010;2023-04-24T02:19:23;99586.63;;;9.39;100.00
20444;BME280;10381;53.730;10.010;2023-04-24T02:23:23;99578.69;;;9.39;100.00
20444;BME280;10381;53.730;10.010;2023-04-24T02:27:23;99581.16;;;9.67;100.00
20444;BME280;10381;53.730;10.010;2023-04-24T02:31:24;99574.53;;;9.71;100.00
20444;BME280;10381;53.730;10.010;2023-04-24T02:35:24;99569.19;;;9.55;100.00
20444;BME280;10381;53.730;10.010;2023-04-24T02:39:25;99575.09;;;9.49;100.00
20444;BME280;10381;53.730;10.010;2023-04-24T02:43:26;99568.09;;;9.31;100.00
20444;BME280;10381;53.730;10.010;2023-04-24T02:47:26;99560.09;;;9.23;100.00
20444;BME280;10381;53.730;10.010;2023-04-24T02:51:26;99555.84;;;9.30;100.00
20444;BME280;10381;53.730;10.010;2023-04-24T02:55:27;99551.22;;;9.32;100.00
20444;BME280;10381;53.730;10.010;2023-04-24T02:59:27;99543.63;;;9.29;100.00
20444;BME280;10381;53.730;10.010;2023-04-24T03:03:28;99541.69;;;9.05;100.00
20444;BME280;10381;53.730;10.010;2023-04-24T03:07:29;99547.41;;;8.92;100.00
20444;BME280;10381;53.730;10.010;2023-04-24T03:11:29;99535.50;;;8.44;100.00
20444;BME280;10381;53.730;10.010;2023-04-24T03:15:30;99535.53;;;8.17;100.00
20444;BME280;10381;53.730;10.010;2023-04-24T03:19:30;99544.38;;;8.43;100.00
20444;BME280;10381;53.730;10.010;2023-04-24T03:23:30;99546.19;;;8.43;100.00
20444;BME280;10381;53.730;10.010;2023-04-24T03:27:30;99546.25;;;8.33;100.00
20444;BME280;10381;53.730;10.010;2023-04-24T03:31:31;99539.28;;;8.68;100.00
20444;BME280;10381;53.730;10.010;2023-04-24T03:35:31;99541.56;;;8.63;100.00
20444;BME280;10381;53.730;10.010;2023-04-24T03:39:32;99553.25;;;8.60;100.00
20444;BME280;10381;53.730;10.010;2023-04-24T03:43:32;99546.28;;;8.77;100.00
20444;BME280;10381;53.730;10.010;2023-04-24T03:47:34;99543.66;;;9.03;100.00
20444;BME280;10381;53.730;10.010;2023-04-24T03:51:34;99543.50;;;9.05;100.00
20444;BME280;10381;53.730;10.010;2023-04-24T03:55:35;99545.31;;;8.78;100.00
20444;BME280;10381;53.730;10.010;2023-04-24T03:59:36;99537.91;;;8.82;100.00
20444;BME280;10381;53.730;10.010;2023-04-24T04:03:36;99536.19;;;8.72;100.00
20444;BME280;10381;53.730;10.010;2023-04-24T04:07:36;99536.81;;;8.66;100.00
20444;BME280;10381;53.730;10.010;2023-04-24T04:11:36;99525.72;;;8.63;100.00
20444;BME280;10381;53.730;10.010;2023-04-24T04:15:37;99525.22;;;8.59;100.00
20444;BME280;10381;53.730;10.010;2023-04-24T04:19:39;99519.88;;;8.77;100.00
20444;BME280;10381;53.730;10.010;2023-04-24T04:23:39;99523.88;;;8.81;100.00
20444;BME280;10381;53.730;10.010;2023-04-24T04:27:40;99523.88;;;9.07;100.00
20444;BME280;10381;53.730;10.010;2023-04-24T04:31:41;99512.16;;;8.84;100.00
20444;BME280;10381;53.730;10.010;2023-04-24T04:35:41;99509.78;;;8.99;100.00
20444;BME280;10381;53.730;10.010;2023-04-24T04:39:42;99499.31;;;9.23;100.00
20444;BME280;10381;53.730;10.010;2023-04-24T04:43:42;99498.69;;;9.29;100.00
20444;BME280;10381;53.730;10.010;2023-04-24T04:47:43;99502.72;;;9.42;100.00
20444;BME280;10381;53.730;10.010;2023-04-24T04:51:44;99493.69;;;9.60;100.00
20444;BME280;10381;53.730;10.010;2023-04-24T04:55:44;99507.16;;;9.92;100.00
20444;BME280;10381;53.730;10.010;2023-04-24T04:59:46;99506.72;;;10.37;100.00
20444;BME280;10381;53.730;10.010;2023-04-24T05:03:47;99494.94;;;10.81;100.00
20444;BME280;10381;53.730;10.010;2023-04-24T05:07:47;99479.75;;;10.50;100.00
20444;BME280;10381;53.730;10.010;2023-04-24T05:11:47;99490.13;;;10.19;100.00
20444;BME280;10381;53.730;10.010;2023-04-24T05:15:48;99485.16;;;10.08;100.00
20444;BME280;10381;53.730;10.010;2023-04-24T05:19:48;99480.53;;;9.93;100.00
20444;BME280;10381;53.730;10.010;2023-04-24T05:23:48;99486.66;;;10.02;100.00
20444;BME280;10381;53.730;10.010;2023-04-24T05:27:48;99489.97;;;10.20;100.00
20444;BME280;10381;53.730;10.010;2023-04-24T05:31:49;99486.00;;;10.74;100.00
20444;BME280;10381;53.730;10.010;2023-04-24T05:35:49;99480.91;;;11.20;100.00
20444;BME280;10381;53.730;10.010;2023-04-24T05:39:50;99480.22;;;11.26;100.00
20444;BME280;10381;53.730;10.010;2023-04-24T05:43:50;99480.88;;;10.80;100.00
20444;BME280;10381;53.730;10.010;2023-04-24T05:47:51;99479.09;;;11.12;100.00
20444;BME280;10381;53.730;10.010;2023-04-24T05:51:52;99482.03;;;10.78;100.00
20444;BME280;10381;53.730;10.010;2023-04-24T05:55:52;99487.25;;;10.94;100.00
20444;BME280;10381;53.730;10.010;2023-04-24T05:59:53;99477.50;;;10.95;100.00
20444;BME280;10381;53.730;10.010;2023-04-24T06:03:53;99481.97;;;10.94;100.00
20444;BME280;10381;53.730;10.010;2023-04-24T06:07:54;99474.13;;;11.17;100.00
20444;BME280;10381;53.730;10.010;2023-04-24T06:11:54;99473.69;;;11.45;100.00
20444;BME280;10381;53.730;10.010;2023-04-24T06:15:56;99476.84;;;11.71;100.00
20444;BME280;10381;53.730;10.010;2023-04-24T06:19:57;99481.50;;;11.30;100.00
20444;BME280;10381;53.730;10.010;2023-04-24T06:23:57;99476.63;;;11.50;100.00
20444;BME280;10381;53.730;10.010;2023-04-24T06:27:58;99478.09;;;11.21;100.00
20444;BME280;10381;53.730;10.010;2023-04-24T06:31:58;99487.63;;;11.70;100.00
20444;BME280;10381;53.730;10.010;2023-04-24T06:35:58;99493.97;;;11.92;100.00
20444;BME280;10381;53.730;10.010;2023-04-24T06:39:59;99489.47;;;12.01;100.00
20444;BME280;10381;53.730;10.010;2023-04-24T06:43:59;99493.91;;;12.46;100.00
20444;BME280;10381;53.730;10.010;2023-04-24T06:48:00;99481.66;;;11.68;100.00
20444;BME280;10381;53.730;10.010;2023-04-24T06:52:00;99480.53;;;11.23;100.00
20444;BME280;10381;53.730;10.010;2023-04-24T06:56:00;99491.59;;;11.43;100.00
20444;BME280;10381;53.730;10.010;2023-04-24T07:00:01;99495.72;;;12.08;100.00
20444;BME280;10381;53.730;10.010;2023-04-24T07:04:01;99495.47;;;12.18;100.00
20444;BME280;10381;53.730;10.010;2023-04-24T07:08:01;99486.97;;;12.22;100.00
20444;BME280;10381;53.730;10.010;2023-04-24T07:12:03;99491.41;;;12.07;100.00
20444;BME280;10381;53.730;10.010;2023-04-24T07:16:03;99494.25;;;12.43;100.00
20444;BME280;10381;53.730;10.010;2023-04-24T07:20:04;99486.50;;;11.96;100.00
20444;BME280;10381;53.730;10.010;2023-04-24T07:24:05;99490.41;;;12.08;100.00
20444;BME280;10381;53.730;10.010;2023-04-24T07:28:09;99488.03;;;11.90;100.00
20444;BME280;10381;53.730;10.010;2023-04-24T07:32:09;99482.38;;;11.62;100.00
20444;BME280;10381;53.730;10.010;2023-04-24T07:36:11;99491.28;;;12.23;100.00
20444;BME280;10381;53.730;10.010;2023-04-24T07:40:15;99498.78;;;12.57;100.00
20444;BME280;10381;53.730;10.010;2023-04-24T07:44:15;99498.69;;;13.18;100.00
20444;BME280;10381;53.730;10.010;2023-04-24T07:48:16;99509.94;;;13.06;100.00
20444;BME280;10381;53.730;10.010;2023-04-24T07:52:17;99510.81;;;12.30;100.00
20444;BME280;10381;53.730;10.010;2023-04-24T07:56:18;99533.53;;;12.10;100.00
20444;BME280;10381;53.730;10.010;2023-04-24T08:00:18;99531.28;;;11.99;100.00
20444;BME280;10381;53.730;10.010;2023-04-24T08:04:19;99531.50;;;11.81;100.00
20444;BME280;10381;53.730;10.010;2023-04-24T08:08:22;99532.91;;;12.00;100.00
20444;BME280;10381;53.730;10.010;2023-04-24T08:12:22;99531.31;;;11.90;100.00
20444;BME280;10381;53.730;10.010;2023-04-24T08:16:23;99533.53;;;11.79;100.00
20444;BME280;10381;53.730;10.010;2023-04-24T08:20:24;99532.53;;;12.11;100.00
20444;BME280;10381;53.730;10.010;2023-04-24T08:24:24;99539.03;;;12.31;100.00
20444;BME280;10381;53.730;10.010;2023-04-24T08:28:25;99541.06;;;11.98;100.00
20444;BME280;10381;53.730;10.010;2023-04-24T08:32:26;99545.88;;;11.94;100.00
20444;BME280;10381;53.730;10.010;2023-04-24T08:36:29;99552.22;;;11.93;100.00
20444;BME280;10381;53.730;10.010;2023-04-24T08:40:34;99540.72;;;12.01;100.00
20444;BME280;10381;53.730;10.010;2023-04-24T08:44:35;99541.50;;;11.70;100.00
20444;BME280;10381;53.730;10.010;2023-04-24T08:48:36;99549.91;;;11.82;100.00
20444;BME280;10381;53.730;10.010;2023-04-24T08:52:37;99564.34;;;11.88;100.00
20444;BME280;10381;53.730;10.010;2023-04-24T08:56:38;99568.25;;;11.61;100.00
20444;BME280;10381;53.730;10.010;2023-04-24T09:00:40;99558.47;;;11.61;100.00
20444;BME280;10381;53.730;10.010;2023-04-24T09:04:47;99556.66;;;11.62;100.00
20444;BME280;10381;53.730;10.010;2023-04-24T09:08:48;99565.19;;;11.88;100.00
20444;BME280;10381;53.730;10.010;2023-04-24T09:12:52;99565.59;;;11.61;100.00
20444;BME280;10381;53.730;10.010;2023-04-24T09:16:52;99562.88;;;11.77;100.00
20444;BME280;10381;53.730;10.010;2023-04-24T09:21:07;99573.09;;;11.97;100.00
20444;BME280;10381;53.730;10.010;2023-04-24T09:25:09;99583.03;;;12.03;100.00
20444;BME280;10381;53.730;10.010;2023-04-24T09:29:16;99572.03;;;11.66;100.00
20444;BME280;10381;53.730;10.010;2023-04-24T09:33:17;99575.78;;;11.80;100.00
20444;BME280;10381;53.730;10.010;2023-04-24T09:37:28;99577.75;;;11.86;100.00
20444;BME280;10381;53.730;10.010;2023-04-24T09:41:29;99576.19;;;11.69;100.00
20444;BME280;10381;53.730;10.010;2023-04-24T09:45:36;99577.59;;;11.88;100.00
20444;BME280;10381;53.730;10.010;2023-04-24T09:49:37;99573.00;;;12.13;100.00
20444;BME280;10381;53.730;10.010;2023-04-24T09:53:39;99587.84;;;12.53;100.00
20444;BME280;10381;53.730;10.010;2023-04-24T09:57:57;99580.13;;;12.82;100.00
20444;BME280;10381;53.730;10.010;2023-04-24T10:01:59;99583.38;;;13.45;100.00
20444;BME280;10381;53.730;10.010;2023-04-24T10:06:00;99578.72;;;13.24;100.00
20444;BME280;10381;53.730;10.010;2023-04-24T10:10:01;99586.44;;;12.57;100.00
20444;BME280;10381;53.730;10.010;2023-04-24T10:14:01;99588.34;;;12.72;100.00
20444;BME280;10381;53.730;10.010;2023-04-24T10:18:02;99588.66;;;12.54;100.00
20444;BME280;10381;53.730;10.010;2023-04-24T10:22:04;99599.44;;;12.52;100.00
20444;BME280;10381;53.730;10.010;2023-04-24T10:26:05;99588.94;;;12.13;100.00
20444;BME280;10381;53.730;10.010;2023-04-24T10:30:06;99599.84;;;11.87;100.00
20444;BME280;10381;53.730;10.010;2023-04-24T10:34:09;99606.72;;;11.57;100.00
20444;BME280;10381;53.730;10.010;2023-04-24T10:38:14;99612.59;;;11.91;100.00
20444;BME280;10381;53.730;10.010;2023-04-24T10:42:16;99604.88;;;12.59;100.00
20444;BME280;10381;53.730;10.010;2023-04-24T10:46:20;99604.72;;;13.51;100.00
20444;BME280;10381;53.730;10.010;2023-04-24T10:50:21;99600.66;;;13.26;100.00
20444;BME280;10381;53.730;10.010;2023-04-24T10:54:30;99607.13;;;13.08;100.00
20444;BME280;10381;53.730;10.010;2023-04-24T10:58:44;99603.19;;;13.04;100.00
20444;BME280;10381;53.730;10.010;2023-04-24T11:02:46;99605.38;;;13.15;100.00
20444;BME280;10381;53.730;10.010;2023-04-24T11:06:52;99601.81;;;13.08;100.00
20444;BME280;10381;53.730;10.010;2023-04-24T11:11:03;99608.25;;;13.14;100.00
20444;BME280;10381;53.730;10.010;2023-04-24T11:15:10;99608.94;;;12.70;100.00
20444;BME280;10381;53.730;10.010;2023-04-24T11:19:20;99603.78;;;13.44;100.00
20444;BME280;10381;53.730;10.010;2023-04-24T11:23:20;99606.41;;;12.76;100.00
20444;BME280;10381;53.730;10.010;2023-04-24T11:27:21;99599.66;;;13.41;100.00
20444;BME280;10381;53.730;10.010;2023-04-24T11:31:39;99605.94;;;12.50;100.00
20444;BME280;10381;53.730;10.010;2023-04-24T11:35:40;99603.34;;;12.65;100.00
20444;BME280;10381;53.730;10.010;2023-04-24T11:39:40;99608.13;;;12.69;100.00
20444;BME280;10381;53.730;10.010;2023-04-24T11:43:41;99613.41;;;12.77;100.00
20444;BME280;10381;53.730;10.010;2023-04-24T11:47:43;99609.59;;;12.95;100.00
20444;BME280;10381;53.730;10.010;2023-04-24T11:51:43;99612.28;;;13.25;100.00
20444;BME280;10381;53.730;10.010;2023-04-24T11:55:44;99617.22;;;12.52;100.00
20444;BME280;10381;53.730;10.010;2023-04-24T11:59:44;99612.59;;;13.30;100.00
20444;BME280;10381;53.730;10.010;2023-04-24T12:03:59;99607.16;;;13.23;100.00
20444;BME280;10381;53.730;10.010;2023-04-24T12:08:00;99614.84;;;13.18;100.00
20444;BME280;10381;53.730;10.010;2023-04-24T12:12:00;99613.47;;;13.07;100.00
20444;BME280;10381;53.730;10.010;2023-04-24T12:16:04;99620.63;;;13.21;100.00
20444;BME280;10381;53.730;10.010;2023-04-24T12:20:07;99612.41;;;13.31;100.00
20444;BME280;10381;53.730;10.010;2023-04-24T12:24:08;99619.59;;;12.47;100.00
20444;BME280;10381;53.730;10.010;2023-04-24T12:28:10;99622.91;;;12.87;100.00
20444;BME280;10381;53.730;10.010;2023-04-24T12:32:17;99620.78;;;13.05;100.00
20444;BME280;10381;53.730;10.010;2023-04-24T12:36:17;99623.91;;;12.71;100.00
20444;BME280;10381;53.730;10.010;2023-04-24T12:40:18;99612.66;;;12.84;100.00
20444;BME280;10381;53.730;10.010;2023-04-24T12:44:19;99621.00;;;12.34;100.00
20444;BME280;10381;53.730;10.010;2023-04-24T12:48:20;99625.44;;;12.42;100.00
20444;BME280;10381;53.730;10.010;2023-04-24T12:52:22;99624.09;;;12.15;100.00
20444;BME280;10381;53.730;10.010;2023-04-24T12:56:23;99624.34;;;11.97;100.00
20444;BME280;10381;53.730;10.010;2023-04-24T13:00:24;99627.00;;;11.97;100.00
20444;BME280;10381;53.730;10.010;2023-04-24T13:04:24;99629.38;;;11.76;100.00
20444;BME280;10381;53.730;10.010;2023-04-24T13:08:25;99635.56;;;11.60;100.00
20444;BME280;10381;53.730;10.010;2023-04-24T13:12:25;99637.22;;;11.61;100.00
20444;BME280;10381;53.730;10.010;2023-04-24T13:16:26;99633.31;;;11.32;100.00
20444;BME280;10381;53.730;10.010;2023-04-24T13:20:26;99639.25;;;11.42;100.00
20444;BME280;10381;53.730;10.010;2023-04-24T13:24:27;99640.03;;;11.67;100.00
20444;BME280;10381;53.730;10.010;2023-04-24T13:28:27;99631.25;;;11.59;100.00
20444;BME280;10381;53.730;10.010;2023-04-24T13:32:28;99637.72;;;11.56;100.00
20444;BME280;10381;53.730;10.010;2023-04-24T13:36:29;99637.34;;;11.76;100.00
20444;BME280;10381;53.730;10.010;2023-04-24T13:40:30;99633.72;;;11.68;100.00
20444;BME280;10381;53.730;10.010;2023-04-24T13:44:30;99635.97;;;11.24;100.00
20444;BME280;10381;53.730;10.010;2023-04-24T13:48:30;99637.81;;;11.15;100.00
20444;BME280;10381;53.730;10.010;2023-04-24T13:52:31;99634.16;;;11.24;100.00
20444;BME280;10381;53.730;10.010;2023-04-24T13:56:31;99643.94;;;11.16;100.00
20444;BME280;10381;53.730;10.010;2023-04-24T14:00:31;99634.50;;;11.13;100.00
20444;BME280;10381;53.730;10.010;2023-04-24T14:04:32;99627.38;;;10.89;100.00
20444;BME280;10381;53.730;10.010;2023-04-24T14:08:32;99623.41;;;11.09;100.00
20444;BME280;10381;53.730;10.010;2023-04-24T14:12:33;99623.41;;;11.09;100.00
20444;BME280;10381;53.730;10.010;2023-04-24T14:16:34;99626.53;;;11.13;100.00
20444;BME280;10381;53.730;10.010;2023-04-24T14:20:34;99616.31;;;11.66;100.00
20444;BME280;10381;53.730;10.010;2023-04-24T14:24:35;99614.75;;;11.40;100.00
20444;BME280;10381;53.730;10.010;2023-04-24T14:28:36;99616.78;;;11.05;100.00
20444;BME280;10381;53.730;10.010;2023-04-24T14:32:37;99617.44;;;11.07;100.00
20444;BME280;10381;53.730;10.010;2023-04-24T14:36:38;99622.75;;;10.83;100.00
20444;BME280;10381;53.730;10.010;2023-04-24T14:40:40;99634.31;;;10.57;100.00
20444;BME280;10381;53.730;10.010;2023-04-24T14:44:40;99632.50;;;10.50;100.00
20444;BME280;10381;53.730;10.010;2023-04-24T14:48:41;99656.59;;;9.88;100.00
20444;BME280;10381;53.730;10.010;2023-04-24T14:52:41;99658.34;;;9.45;100.00
20444;BME280;10381;53.730;10.010;2023-04-24T14:56:41;99678.56;;;9.28;100.00
20444;BME280;10381;53.730;10.010;2023-04-24T15:00:43;99682.78;;;9.38;100.00
20444;BME280;10381;53.730;10.010;2023-04-24T15:04:44;99694.19;;;9.39;100.00
20444;BME280;10381;53.730;10.010;2023-04-24T15:08:44;99699.88;;;9.26;100.00
20444;BME280;10381;53.730;10.010;2023-04-24T15:12:44;99697.72;;;9.48;100.00
20444;BME280;10381;53.730;10.010;2023-04-24T15:16:45;99701.38;;;9.29;100.00
20444;BME280;10381;53.730;10.010;2023-04-24T15:20:45;99712.09;;;9.27;100.00
20444;BME280;10381;53.730;10.010;2023-04-24T15:24:46;99721.63;;;9.20;100.00
20444;BME280;10381;53.730;10.010;2023-04-24T15:28:46;99726.31;;;8.90;100.00
20444;BME280;10381;53.730;10.010;2023-04-24T15:32:49;99733.88;;;8.85;100.00
20444;BME280;10381;53.730;10.010;2023-04-24T15:36:50;99741.31;;;8.72;100.00
20444;BME280;10381;53.730;10.010;2023-04-24T15:40:50;99754.91;;;8.59;100.00
20444;BME280;10381;53.730;10.010;2023-04-24T15:44:50;99775.94;;;8.41;100.00
20444;BME280;10381;53.730;10.010;2023-04-24T15:48:50;99786.03;;;8.18;100.00
20444;BME280;10381;53.730;10.010;2023-04-24T15:52:51;99803.94;;;8.15;100.00
20444;BME280;10381;53.730;10.010;2023-04-24T15:56:51;99815.69;;;7.83;100.00
20444;BME280;10381;53.730;10.010;2023-04-24T16:00:51;99825.28;;;7.74;100.00
20444;BME280;10381;53.730;10.010;2023-04-24T16:04:53;99829.72;;;7.74;100.00
20444;BME280;10381;53.730;10.010;2023-04-24T16:08:53;99835.28;;;7.71;100.00
20444;BME280;10381;53.730;10.010;2023-04-24T16:12:54;99844.59;;;7.55;100.00
20444;BME280;10381;53.730;10.010;2023-04-24T16:16:54;99842.50;;;7.30;100.00
20444;BME280;10381;53.730;10.010;2023-04-24T16:20:55;99862.47;;;7.22;100.00
20444;BME280;10381;53.730;10.010;2023-04-24T16:24:56;99866.31;;;7.09;100.00
20444;BME280;10381;53.730;10.010;2023-04-24T16:28:57;99871.09;;;6.84;100.00
20444;BME280;10381;53.730;10.010;2023-04-24T16:32:58;99866.94;;;6.81;100.00
20444;BME280;10381;53.730;10.010;2023-04-24T16:36:58;99877.84;;;6.67;100.00
20444;BME280;10381;53.730;10.010;2023-04-24T16:40:58;99886.97;;;6.63;100.00
20444;BME280;10381;53.730;10.010;2023-04-24T16:44:58;99904.78;;;6.50;100.00
20444;BME280;10381;53.730;10.010;2023-04-24T16:48:59;99896.84;;;6.40;100.00
20444;BME280;10381;53.730;10.010;2023-04-24T16:52:59;99916.31;;;6.28;100.00
20444;BME280;10381;53.730;10.010;2023-04-24T16:56:59;99923.03;;;6.21;100.00
20444;BME280;10381;53.730;10.010;2023-04-24T17:01:00;99918.16;;;6.16;100.00
20444;BME280;10381;53.730;10.010;2023-04-24T17:05:00;99923.09;;;6.09;100.00
20444;BME280;10381;53.730;10.010;2023-04-24T17:09:00;99929.56;;;6.05;100.00
20444;BME280;10381;53.730;10.010;2023-04-24T17:13:01;99932.06;;;6.07;100.00
20444;BME280;10381;53.730;10.010;2023-04-24T17:17:02;99932.91;;;6.07;100.00
20444;BME280;10381;53.730;10.010;2023-04-24T17:21:02;99948.69;;;6.07;100.00
20444;BME280;10381;53.730;10.010;2023-04-24T17:25:03;99945.22;;;6.07;100.00
20444;BME280;10381;53.730;10.010;2023-04-24T17:29:03;99949.50;;;6.08;100.00
20444;BME280;10381;53.730;10.010;2023-04-24T17:33:03;99952.13;;;6.08;100.00
20444;BME280;10381;53.730;10.010;2023-04-24T17:37:04;99946.22;;;6.15;100.00
20444;BME280;10381;53.730;10.010;2023-04-24T17:41:04;99949.56;;;6.17;100.00
20444;BME280;10381;53.730;10.010;2023-04-24T17:45:05;99946.56;;;6.22;100.00
20444;BME280;10381;53.730;10.010;2023-04-24T17:49:05;99951.31;;;6.28;100.00
20444;BME280;10381;53.730;10.010;2023-04-24T17:53:06;99951.06;;;6.31;100.00
20444;BME280;10381;53.730;10.010;2023-04-24T17:57:06;99958.03;;;6.42;100.00
20444;BME280;10381;53.730;10.010;2023-04-24T18:01:07;99944.00;;;6.32;100.00
20444;BME280;10381;53.730;10.010;2023-04-24T18:05:07;99948.03;;;6.36;100.00
20444;BME280;10381;53.730;10.010;2023-04-24T18:09:07;99948.88;;;6.36;100.00
20444;BME280;10381;53.730;10.010;2023-04-24T18:13:08;99956.50;;;6.39;100.00
20444;BME280;10381;53.730;10.010;2023-04-24T18:17:09;99963.06;;;6.45;100.00
20444;BME280;10381;53.730;10.010;2023-04-24T18:21:09;99956.97;;;6.45;100.00
20444;BME280;10381;53.730;10.010;2023-04-24T18:25:10;99962.53;;;6.51;100.00
20444;BME280;10381;53.730;10.010;2023-04-24T18:29:10;99962.91;;;6.47;100.00
20444;BME280;10381;53.730;10.010;2023-04-24T18:33:10;99960.97;;;6.49;100.00
20444;BME280;10381;53.730;10.010;2023-04-24T18:37:10;99971.13;;;6.53;100.00
20444;BME280;10381;53.730;10.010;2023-04-24T18:41:11;99961.69;;;6.51;100.00
20444;BME280;10381;53.730;10.010;2023-04-24T18:45:13;99976.53;;;6.52;100.00
20444;BME280;10381;53.730;10.010;2023-04-24T18:49:13;99975.28;;;6.56;100.00
20444;BME280;10381;53.730;10.010;2023-04-24T18:53:14;99979.16;;;6.52;100.00
20444;BME280;10381;53.730;10.010;2023-04-24T18:57:17;99969.59;;;6.51;100.00
20444;BME280;10381;53.730;10.010;2023-04-24T19:01:17;99980.81;;;6.53;100.00
20444;BME280;10381;53.730;10.010;2023-04-24T19:05:17;99989.69;;;6.52;100.00
20444;BME280;10381;53.730;10.010;2023-04-24T19:09:17;99995.91;;;6.51;100.00
20444;BME280;10381;53.730;10.010;2023-04-24T19:13:18;99998.53;;;6.51;100.00
20444;BME280;10381;53.730;10.010;2023-04-24T19:17:19;99997.13;;;6.47;100.00
20444;BME280;10381;53.730;10.010;2023-04-24T19:21:23;99997.00;;;6.48;100.00
20444;BME280;10381;53.730;10.010;2023-04-24T19:25:23;99986.47;;;6.48;100.00
20444;BME280;10381;53.730;10.010;2023-04-24T19:29:24;99988.28;;;6.48;100.00
20444;BME280;10381;53.730;10.010;2023-04-24T19:33:24;99999.91;;;6.45;100.00
20444;BME280;10381;53.730;10.010;2023-04-24T19:37:25;100002.06;;;6.40;100.00
20444;BME280;10381;53.730;10.010;2023-04-24T19:41:25;100006.97;;;6.45;100.00
20444;BME280;10381;53.730;10.010;2023-04-24T19:45:25;99997.81;;;6.49;100.00
20444;BME280;10381;53.730;10.010;2023-04-24T19:49:26;100002.97;;;6.50;100.00
20444;BME280;10381;53.730;10.010;2023-04-24T19:53:26;99999.97;;;6.55;100.00
20444;BME280;10381;53.730;10.010;2023-04-24T19:57:27;99993.59;;;6.57;100.00
20444;BME280;10381;53.730;10.010;2023-04-24T20:01:27;99995.13;;;6.60;100.00
20444;BME280;10381;53.730;10.010;2023-04-24T20:05:27;99995.00;;;6.61;100.00
20444;BME280;10381;53.730;10.010;2023-04-24T20:09:27;99990.19;;;6.67;100.00
20444;BME280;10381;53.730;10.010;2023-04-24T20:13:28;99997.81;;;6.70;100.00
20444;BME280;10381;53.730;10.010;2023-04-24T20:17:30;100001.16;;;6.72;100.00
20444;BME280;10381;53.730;10.010;2023-04-24T20:21:31;99991.34;;;6.74;100.00
20444;BME280;10381;53.730;10.010;2023-04-24T20:25:32;99993.97;;;6.74;100.00
20444;BME280;10381;53.730;10.010;2023-04-24T20:29:32;100000.91;;;6.75;100.00
20444;BME280;10381;53.730;10.010;2023-04-24T20:33:33;99998.25;;;6.75;100.00
20444;BME280;10381;53.730;10.010;2023-04-24T20:37:37;99996.22;;;6.78;100.00
20444;BME280;10381;53.730;10.010;2023-04-24T20:41:37;99997.13;;;6.68;100.00
20444;BME280;10381;53.730;10.010;2023-04-24T20:45:37;100001.63;;;6.56;100.00
20444;BME280;10381;53.730;10.010;2023-04-24T20:49:37;100009.78;;;6.53;100.00
20444;BME280;10381;53.730;10.010;2023-04-24T20:53:38;100002.16;;;6.50;100.00